Time;durP1;ratioP1;P1;durP2;ratioP2;P2;SDS_P1;SDS_P2;PMS_P1;PMS_P2;Temp;Humidity;BMP_temperature;BMP_pressure;BME280_temperature;BME280_humidity;BME280_pressure;Samples;Min_cycle;Max_cycle;Signal;HPM_P1;HPM_P2
2022/10/23 00:01:30;;;;;;;31.38;29.05;;;;;;;15.83;65.96;101261.09;4976394;28;20034;-74
2022/10/23 00:03:58;;;;;;;28.77;27.08;;;;;;;15.81;66.03;101255.06;4977508;28;20030;-74
2022/10/23 00:06:24;;;;;;;30.30;28.50;;;;;;;15.80;65.98;101256.16;4976770;28;20027;-75
2022/10/23 00:08:50;;;;;;;30.42;28.63;;;;;;;15.79;65.99;101254.50;4976630;28;20035;-74
2022/10/23 00:11:19;;;;;;;30.60;28.55;;;;;;;15.79;65.84;101259.97;4977155;28;20120;-74
2022/10/23 00:13:45;;;;;;;29.13;27.20;;;;;;;15.78;66.10;101255.59;4976522;28;20034;-75
2022/10/23 00:16:10;;;;;;;30.40;28.55;;;;;;;15.76;65.89;101255.88;4976814;28;20035;-75
2022/10/23 00:18:37;;;;;;;30.30;27.60;;;;;;;15.76;65.76;101261.31;4976882;28;20106;-74
2022/10/23 00:21:02;;;;;;;33.40;31.20;;;;;;;15.76;66.25;101255.03;4974728;28;20043;-75
2022/10/23 00:23:28;;;;;;;30.55;28.15;;;;;;;15.75;65.91;101239.81;4976346;28;20038;-74
2022/10/23 00:25:53;;;;;;;30.83;28.75;;;;;;;15.74;65.90;101252.56;4976565;28;20118;-74
2022/10/23 00:28:19;;;;;;;31.05;29.20;;;;;;;15.73;65.90;101244.69;4975839;28;20066;-74
2022/10/23 00:30:44;;;;;;;31.00;29.00;;;;;;;15.72;66.15;101252.03;4975905;28;20476;-74
2022/10/23 00:33:10;;;;;;;32.50;29.90;;;;;;;15.72;66.06;101241.16;4976349;28;20122;-74
2022/10/23 00:35:39;;;;;;;31.23;28.90;;;;;;;15.71;66.13;101241.41;4976127;28;20364;-74
2022/10/23 00:38:05;;;;;;;34.08;31.25;;;;;;;15.71;66.30;101244.13;4975988;28;20041;-74
2022/10/23 00:40:30;;;;;;;29.92;27.67;;;;;;;15.69;66.09;101236.22;4976002;28;20035;-74
2022/10/23 00:42:56;;;;;;;29.50;27.52;;;;;;;15.68;66.16;101242.72;4975954;28;20030;-74
2022/10/23 00:45:25;;;;;;;30.40;28.30;;;;;;;15.68;66.06;101239.19;4974866;28;20121;-74
2022/10/23 00:47:51;;;;;;;32.20;29.88;;;;;;;15.67;66.25;101232.91;4975778;28;20038;-75
2022/10/23 00:50:17;;;;;;;30.08;28.13;;;;;;;15.66;66.05;101239.44;4975794;28;20486;-74
2022/10/23 00:52:49;;;;;;;30.08;28.23;;;;;;;15.66;66.53;101239.44;4975771;28;20039;-74
2022/10/23 00:55:17;;;;;;;29.92;27.88;;;;;;;15.65;66.18;101245.13;4975376;28;20489;-74
2022/10/23 00:57:44;;;;;;;30.17;28.25;;;;;;;15.64;66.19;101244.31;4975691;28;20113;-75
2022/10/23 01:00:25;;;;;;;29.48;27.70;;;;;;;15.63;66.36;101242.69;4975575;28;20031;-75
2022/10/23 01:02:51;;;;;;;28.77;26.92;;;;;;;15.63;66.18;101239.16;4975950;28;20058;-73
2022/10/23 01:05:18;;;;;;;30.25;28.33;;;;;;;15.63;66.18;101236.44;4975188;28;20435;-74
2022/10/23 01:07:55;;;;;;;30.85;28.95;;;;;;;15.62;65.89;101242.94;4975335;28;20374;-75
2022/10/23 01:10:35;;;;;;;31.38;29.13;;;;;;;15.61;66.26;101246.78;4975361;28;20037;-74
2022/10/23 01:13:15;;;;;;;29.63;27.73;;;;;;;15.59;66.21;101247.84;4975793;28;20031;-75
2022/10/23 01:15:43;;;;;;;28.55;26.75;;;;;;;15.58;66.37;101239.94;4975156;28;20166;-74
2022/10/23 01:18:26;;;;;;;29.03;27.10;;;;;;;15.58;66.06;101242.66;4975331;28;20467;-74
2022/10/23 01:21:02;;;;;;;29.85;27.63;;;;;;;15.57;66.36;101246.47;4975059;28;20737;-75
2022/10/23 01:24:04;;;;;;;28.48;26.67;;;;;;;15.55;66.29;101244.03;4975204;28;20035;-75
2022/10/23 01:26:43;;;;;;;30.27;28.20;;;;;;;15.54;66.37;101225.22;4975646;28;20105;-74
2022/10/23 01:29:13;;;;;;;29.35;27.48;;;;;;;15.54;66.02;101219.75;4975035;28;20129;-75
2022/10/23 01:31:48;;;;;;;30.05;28.17;;;;;;;15.53;66.34;101216.22;4975871;28;20086;-75
2022/10/23 01:34:19;;;;;;;29.55;27.55;;;;;;;15.53;66.26;101209.97;4975305;28;20037;-75
2022/10/23 01:36:48;;;;;;;31.30;29.25;;;;;;;15.53;65.93;101204.53;4974856;28;20027;-74
2022/10/23 01:39:23;;;;;;;30.67;28.33;;;;;;;15.51;66.05;101204.78;4974638;28;20442;-74
2022/10/23 01:41:56;;;;;;;28.33;26.63;;;;;;;15.50;66.25;101194.97;4974962;28;20027;-74
2022/10/23 01:45:03;;;;;;;30.27;28.27;;;;;;;15.50;66.00;101197.72;4975156;28;20030;-74
2022/10/23 01:47:33;;;;;;;28.42;26.70;;;;;;;15.49;66.09;101196.06;4945661;28;20050;-74
2022/10/23 01:49:59;;;;;;;31.42;28.98;;;;;;;15.48;66.13;101193.59;4974858;28;20126;-74
2022/10/23 01:52:25;;;;;;;30.75;28.70;;;;;;;15.47;66.25;101191.94;4975301;28;20035;-75
2022/10/23 01:54:54;;;;;;;31.05;28.80;;;;;;;15.46;66.34;101199.31;4974796;28;20039;-74
2022/10/23 01:57:21;;;;;;;30.23;28.08;;;;;;;15.46;66.33;101196.59;4974719;28;20039;-74
2022/10/23 01:59:57;;;;;;;29.30;27.02;;;;;;;15.45;66.11;101197.69;4974748;28;20045;-74
2022/10/23 02:02:25;;;;;;;29.52;27.42;;;;;;;15.45;66.27;101191.41;4974663;28;20042;-74
2022/10/23 02:05:23;;;;;;;28.55;26.75;;;;;;;15.44;66.19;101185.13;4974733;28;20122;-74
2022/10/23 02:07:50;;;;;;;28.70;26.30;;;;;;;15.43;66.01;101180.78;4974408;28;20042;-75
2022/10/23 02:10:16;;;;;;;30.00;27.75;;;;;;;15.43;66.18;101185.41;4974659;28;20039;-75
2022/10/23 02:13:17;;;;;;;31.23;28.77;;;;;;;15.41;65.99;101182.13;4974387;28;20034;-74
2022/10/23 02:16:09;;;;;;;28.67;26.98;;;;;;;15.40;66.25;101175.06;4974639;28;20117;-74
2022/10/23 02:18:53;;;;;;;28.75;27.10;;;;;;;15.39;66.20;101174.22;4971940;28;20122;-75
2022/10/23 02:21:34;;;;;;;29.30;27.25;;;;;;;15.38;65.96;101167.16;4974586;28;20027;-74
2022/10/23 02:24:06;;;;;;;29.77;27.88;;;;;;;15.37;66.17;101168.22;4975137;28;20037;-73
2022/10/23 02:26:45;;;;;;;28.35;26.65;;;;;;;15.36;66.28;101164.69;4978286;28;20101;-74
2022/10/23 02:29:27;;;;;;;30.55;27.60;;;;;;;15.36;66.13;101169.31;4978484;28;20081;-74
2022/10/23 02:31:53;;;;;;;28.80;27.02;;;;;;;15.36;66.33;101163.88;4978427;28;20039;-74
2022/10/23 02:34:18;;;;;;;32.08;29.27;;;;;;;15.34;66.30;101161.41;4978002;28;20035;-74
2022/10/23 02:36:44;;;;;;;28.52;26.48;;;;;;;15.34;66.16;101155.13;4978269;28;20066;-75
2022/10/23 02:39:09;;;;;;;29.30;27.42;;;;;;;15.34;65.93;101144.25;4977311;28;20050;-74
2022/10/23 02:41:44;;;;;;;30.10;28.20;;;;;;;15.33;66.27;101132.56;4978387;28;20348;-74
2022/10/23 02:44:20;;;;;;;29.55;27.73;;;;;;;15.33;66.14;101129.81;4978158;28;20039;-75
2022/10/23 02:47:03;;;;;;;29.77;27.88;;;;;;;15.33;66.39;101120.84;4979016;28;20511;-75
2022/10/23 02:49:48;;;;;;;29.30;27.45;;;;;;;15.31;66.51;101112.13;4978263;28;20042;-75
2022/10/23 02:52:31;;;;;;;27.83;25.92;;;;;;;15.30;66.02;101107.78;4978631;28;20078;-74
2022/10/23 02:55:16;;;;;;;27.60;26.00;;;;;;;15.29;66.10;101097.97;4977778;28;20121;-75
2022/10/23 02:58:09;;;;;;;28.33;26.63;;;;;;;15.28;66.61;101097.16;4977487;28;20468;-75
2022/10/23 03:00:41;;;;;;;28.42;26.30;;;;;;;15.27;66.52;101092.81;4977807;28;20042;-75
2022/10/23 03:03:36;;;;;;;28.73;26.75;;;;;;;15.27;66.25;101091.97;4977339;28;20399;-75
2022/10/23 03:06:02;;;;;;;27.40;25.80;;;;;;;15.26;66.26;101090.34;4976482;28;20498;-75
2022/10/23 03:08:27;;;;;;;30.50;28.40;;;;;;;15.25;66.22;101080.53;4978193;28;20122;-75
2022/10/23 03:10:53;;;;;;;29.42;27.40;;;;;;;15.24;66.27;101082.41;4977670;28;20069;-75
2022/10/23 03:13:18;;;;;;;27.83;26.02;;;;;;;15.25;66.57;101077.81;4978185;28;20062;-75
2022/10/23 03:15:44;;;;;;;28.63;26.83;;;;;;;15.24;66.58;101079.69;4977306;28;20497;-75
2022/10/23 03:18:09;;;;;;;28.92;27.20;;;;;;;15.23;66.21;101069.91;4978121;28;20093;-74
2022/10/23 03:20:34;;;;;;;29.80;28.00;;;;;;;15.23;66.63;101080.78;4977577;28;20070;-76
2022/10/23 03:23:00;;;;;;;29.20;27.23;;;;;;;15.23;66.66;101071.81;4977711;28;20045;-76
2022/10/23 03:25:26;;;;;;;30.17;28.13;;;;;;;15.21;66.14;101074.78;4977627;28;20038;-75
2022/10/23 03:27:51;;;;;;;28.58;26.48;;;;;;;15.22;66.37;101073.72;4977343;28;20094;-74
2022/10/23 03:30:17;;;;;;;28.10;26.40;;;;;;;15.22;66.31;101067.44;4977584;28;20150;-75
2022/10/23 03:32:42;;;;;;;28.67;26.60;;;;;;;15.22;66.54;101062.00;4977283;28;20030;-75
2022/10/23 03:35:08;;;;;;;28.42;26.42;;;;;;;15.21;66.36;101063.09;4977231;28;20031;-74
2022/10/23 03:37:33;;;;;;;29.58;27.15;;;;;;;15.21;66.28;101054.94;4976763;28;20026;-74
2022/10/23 03:39:59;;;;;;;29.23;27.40;;;;;;;15.20;66.31;101047.88;4976932;28;20031;-74
2022/10/23 03:42:24;;;;;;;29.48;27.58;;;;;;;15.21;66.82;101049.50;4977368;28;20037;-74
2022/10/23 03:44:49;;;;;;;29.17;27.13;;;;;;;15.20;66.71;101036.97;4977205;28;20160;-75
2022/10/23 03:47:15;;;;;;;30.05;27.70;;;;;;;15.20;66.63;101045.97;4976966;28;20074;-75
2022/10/23 03:49:40;;;;;;;28.95;27.00;;;;;;;15.20;66.56;101039.69;4977027;28;20075;-75
2022/10/23 03:52:06;;;;;;;27.70;26.20;;;;;;;15.20;66.75;101039.69;4977233;28;20042;-74
2022/10/23 03:54:32;;;;;;;30.25;28.20;;;;;;;15.19;66.77;101032.59;4975585;28;20054;-75
2022/10/23 03:56:58;;;;;;;29.13;27.15;;;;;;;15.18;66.42;101029.06;4976538;28;20380;-75
2022/10/23 03:59:24;;;;;;;29.38;27.25;;;;;;;15.17;66.76;101019.28;4977253;28;20117;-74
2022/10/23 04:01:49;;;;;;;28.02;26.40;;;;;;;15.18;66.52;101025.53;4977270;28;20033;-75
2022/10/23 04:04:15;;;;;;;28.58;26.80;;;;;;;15.17;66.40;101018.44;4975964;28;20129;-73
2022/10/23 04:06:40;;;;;;;28.65;26.55;;;;;;;15.17;66.51;101019.28;4976821;28;20027;-74
2022/10/23 04:09:06;;;;;;;28.08;26.33;;;;;;;15.16;66.67;101020.34;4976505;28;20035;-73
2022/10/23 04:11:32;;;;;;;28.60;26.08;;;;;;;15.15;66.54;101011.38;4975278;28;20043;-73
2022/10/23 04:13:57;;;;;;;29.73;27.73;;;;;;;15.15;66.65;101008.66;4975043;28;20098;-74
2022/10/23 04:16:23;;;;;;;29.45;27.27;;;;;;;15.13;66.64;101013.53;4976345;28;20117;-75
2022/10/23 04:18:49;;;;;;;28.50;26.80;;;;;;;15.14;66.74;101011.63;4977151;28;20047;-74
2022/10/23 04:21:15;;;;;;;27.58;25.98;;;;;;;15.14;66.89;101014.34;4976392;28;20188;-75
2022/10/23 04:23:41;;;;;;;28.70;26.35;;;;;;;15.13;66.71;101013.53;4976303;28;20045;-74
2022/10/23 04:26:06;;;;;;;28.85;27.08;;;;;;;15.12;66.98;101006.47;4976266;28;20121;-74
2022/10/23 04:28:32;;;;;;;29.73;27.38;;;;;;;15.12;66.78;101016.53;4976690;28;20438;-74
2022/10/23 04:30:57;;;;;;;29.45;27.40;;;;;;;15.12;66.92;101005.66;4976151;28;20034;-75
2022/10/23 04:33:23;;;;;;;28.70;26.13;;;;;;;15.11;67.08;101006.72;4976156;28;20038;-74
2022/10/23 04:35:49;;;;;;;27.40;25.80;;;;;;;15.11;66.48;101006.72;4976760;28;20042;-74
2022/10/23 04:38:14;;;;;;;28.77;26.92;;;;;;;15.10;66.85;100995.03;4976102;28;20364;-76
2022/10/23 04:40:40;;;;;;;29.40;27.17;;;;;;;15.10;66.68;101003.19;4975802;28;20055;-73
2022/10/23 04:43:05;;;;;;;29.00;27.20;;;;;;;15.11;66.70;101004.00;4976346;28;20035;-74
2022/10/23 04:45:30;;;;;;;28.30;26.50;;;;;;;15.09;66.76;101006.19;4975973;28;20059;-74
2022/10/23 04:47:56;;;;;;;27.95;26.40;;;;;;;15.09;66.58;101004.28;4975387;28;20111;-74
2022/10/23 04:50:21;;;;;;;28.73;27.02;;;;;;;15.09;66.59;101001.56;4975879;28;20409;-74
2022/10/23 04:52:47;;;;;;;27.90;26.20;;;;;;;15.09;66.93;101000.72;4976047;28;20035;-74
2022/10/23 04:55:13;;;;;;;27.65;25.77;;;;;;;15.07;66.58;101000.19;4975736;28;20035;-74
2022/10/23 04:57:38;;;;;;;30.60;28.63;;;;;;;15.08;66.88;100993.66;4975420;28;20475;-73
2022/10/23 05:00:06;;;;;;;29.50;27.52;;;;;;;15.07;67.06;100992.03;4974191;28;20051;-74
2022/10/23 05:02:32;;;;;;;29.65;27.45;;;;;;;15.07;66.62;100994.75;4975371;28;20034;-73
2022/10/23 05:04:57;;;;;;;28.45;26.63;;;;;;;15.06;67.06;100990.38;4975814;28;20039;-73
2022/10/23 05:07:22;;;;;;;28.17;26.08;;;;;;;15.05;66.83;100984.13;4975734;28;20046;-73
2022/10/23 05:09:48;;;;;;;27.70;26.10;;;;;;;15.05;66.51;100984.13;4974162;28;20129;-73
2022/10/23 05:12:13;;;;;;;28.60;26.73;;;;;;;15.04;66.60;100982.47;4975451;28;20093;-74
2022/10/23 05:14:39;;;;;;;31.35;29.17;;;;;;;15.04;66.61;100976.22;4975373;28;20042;-74
2022/10/23 05:17:31;;;;;;;28.42;26.65;;;;;;;15.04;66.77;100977.03;4974191;28;20134;-75
2022/10/23 05:19:59;;;;;;;27.48;25.88;;;;;;;15.03;66.62;100980.03;4968708;28;20065;-75
2022/10/23 05:22:28;;;;;;;28.83;26.80;;;;;;;15.03;66.87;100980.03;4975282;28;20027;-75
2022/10/23 05:24:54;;;;;;;27.15;25.55;;;;;;;15.01;67.02;100966.69;4974851;28;20626;-73
2022/10/23 05:27:19;;;;;;;27.67;25.75;;;;;;;15.02;66.70;100971.06;4975012;28;20039;-73
2022/10/23 05:29:45;;;;;;;28.80;26.80;;;;;;;15.01;67.01;100966.69;4974764;28;20034;-74
2022/10/23 05:32:13;;;;;;;29.23;27.35;;;;;;;15.00;66.60;100967.78;4973836;28;20034;-73
2022/10/23 05:34:39;;;;;;;28.90;27.03;;;;;;;15.00;66.82;100965.06;4974994;28;20031;-74
2022/10/23 05:37:08;;;;;;;28.95;26.95;;;;;;;15.00;67.14;100966.97;4975014;28;20278;-75
2022/10/23 05:39:33;;;;;;;27.67;25.73;;;;;;;14.98;67.05;100961.81;4974577;28;20034;-73
2022/10/23 05:41:59;;;;;;;28.13;26.08;;;;;;;14.99;66.55;100955.25;4974923;28;20178;-75
2022/10/23 05:44:24;;;;;;;28.08;26.35;;;;;;;14.99;67.04;100952.53;4974662;28;20034;-75
2022/10/23 05:46:50;;;;;;;28.25;26.50;;;;;;;14.98;66.91;100950.09;4974305;28;20511;-74
2022/10/23 05:49:15;;;;;;;29.95;27.50;;;;;;;14.99;66.92;100957.16;4974871;28;20186;-74
2022/10/23 05:51:41;;;;;;;29.17;26.98;;;;;;;14.98;67.22;100950.09;4974838;28;20030;-73
2022/10/23 05:54:07;;;;;;;27.80;26.10;;;;;;;14.97;66.91;100954.72;4974557;28;20039;-75
2022/10/23 05:56:37;;;;;;;27.85;25.92;;;;;;;14.97;67.23;100949.28;4974642;28;20058;-74
2022/10/23 05:59:03;;;;;;;27.60;25.90;;;;;;;14.96;67.02;100947.63;4974489;28;20058;-75
2022/10/23 06:01:29;;;;;;;28.13;26.52;;;;;;;14.95;66.99;100943.28;4974337;28;20463;-74
2022/10/23 06:03:54;;;;;;;28.13;26.33;;;;;;;14.96;67.14;100946.84;4974658;28;20043;-74
2022/10/23 06:06:20;;;;;;;29.40;27.40;;;;;;;14.95;67.26;100937.03;4974837;28;20027;-74
2022/10/23 06:08:45;;;;;;;29.30;27.38;;;;;;;14.96;66.86;100946.84;4975082;28;20038;-74
2022/10/23 06:11:13;;;;;;;28.27;26.17;;;;;;;14.93;66.72;100946.28;4974941;28;20030;-73
2022/10/23 06:13:41;;;;;;;28.27;26.65;;;;;;;14.92;66.88;100944.66;4974582;28;20027;-74
2022/10/23 06:16:12;;;;;;;28.50;26.42;;;;;;;14.92;66.76;100931.06;4974568;28;20086;-73
2022/10/23 06:18:38;;;;;;;27.48;25.83;;;;;;;14.92;67.10;100933.78;4974222;28;20042;-73
2022/10/23 06:21:04;;;;;;;28.20;26.30;;;;;;;14.92;66.78;100922.09;4974755;28;20042;-73
2022/10/23 06:23:33;;;;;;;28.10;25.90;;;;;;;14.91;67.17;100921.25;4974439;28;20059;-73
2022/10/23 06:25:59;;;;;;;28.63;26.77;;;;;;;14.92;67.11;100913.91;4974918;28;20037;-75
2022/10/23 06:28:24;;;;;;;28.00;26.30;;;;;;;14.91;67.14;100923.16;4974390;28;20034;-74
2022/10/23 06:30:50;;;;;;;29.02;26.98;;;;;;;14.91;66.93;100923.97;4974777;28;20043;-73
2022/10/23 06:33:15;;;;;;;28.75;26.90;;;;;;;14.91;67.23;100917.72;4974454;28;20094;-75
2022/10/23 06:35:41;;;;;;;30.00;28.10;;;;;;;14.90;67.28;100916.91;4974452;28;20035;-75
2022/10/23 06:38:07;;;;;;;28.50;26.45;;;;;;;14.89;67.07;100895.38;4974350;28;20038;-75
2022/10/23 06:40:33;;;;;;;28.17;26.48;;;;;;;14.89;67.33;100898.94;4974859;28;20042;-75
2022/10/23 06:42:59;;;;;;;27.45;25.77;;;;;;;14.88;67.08;100899.22;4974597;28;20371;-73
2022/10/23 06:45:24;;;;;;;27.95;25.95;;;;;;;14.89;67.32;100900.84;4974138;28;20051;-74
2022/10/23 06:47:50;;;;;;;27.48;25.80;;;;;;;14.89;67.09;100898.13;4974423;28;20195;-74
2022/10/23 06:50:15;;;;;;;27.63;25.40;;;;;;;14.87;67.09;100892.97;4974854;28;20058;-74
2022/10/23 06:52:41;;;;;;;27.90;26.30;;;;;;;14.88;67.30;100896.50;4972884;28;20471;-74
2022/10/23 06:55:07;;;;;;;27.88;26.05;;;;;;;14.87;67.37;100889.44;4973228;28;20108;-73
2022/10/23 06:57:32;;;;;;;32.03;26.80;;;;;;;14.87;67.13;100894.88;4974130;28;20066;-74
2022/10/23 06:59:58;;;;;;;29.77;27.77;;;;;;;14.87;67.28;100892.16;4973079;28;20464;-74
2022/10/23 07:02:23;;;;;;;27.45;25.95;;;;;;;14.86;66.80;100895.94;4973952;28;20422;-74
2022/10/23 07:04:48;;;;;;;28.15;26.23;;;;;;;14.85;67.24;100889.69;4974571;28;20039;-74
2022/10/23 07:07:14;;;;;;;28.08;26.38;;;;;;;14.86;67.52;100898.66;4974404;28;20081;-74
2022/10/23 07:09:39;;;;;;;29.10;27.20;;;;;;;14.85;67.55;100888.88;4974098;28;20031;-74
2022/10/23 07:12:04;;;;;;;27.67;26.15;;;;;;;14.85;67.20;100886.97;4976836;28;20038;-73
2022/10/23 07:14:31;;;;;;;28.35;26.20;;;;;;;14.85;67.56;100883.44;4977601;28;20039;-74
2022/10/23 07:16:57;;;;;;;31.30;28.15;;;;;;;14.85;67.74;100880.72;4977537;28;20039;-73
2022/10/23 07:19:22;;;;;;;28.20;26.48;;;;;;;14.83;67.50;100878.25;4977496;28;20035;-73
2022/10/23 07:21:47;;;;;;;29.83;27.52;;;;;;;14.83;67.75;100880.97;4977647;28;20129;-74
2022/10/23 07:24:13;;;;;;;27.98;25.73;;;;;;;14.83;67.54;100874.72;4977419;28;20031;-74
2022/10/23 07:26:38;;;;;;;27.13;25.13;;;;;;;14.83;67.60;100869.28;4977313;28;20132;-74
2022/10/23 07:29:04;;;;;;;26.95;25.15;;;;;;;14.82;67.76;100867.66;4976104;28;20039;-74
2022/10/23 07:31:29;;;;;;;27.52;25.85;;;;;;;14.83;67.92;100864.66;4977080;28;20058;-74
2022/10/23 07:33:54;;;;;;;28.23;26.30;;;;;;;14.82;67.95;100865.75;4977208;28;20085;-74
2022/10/23 07:36:20;;;;;;;27.45;25.67;;;;;;;14.83;67.56;100863.84;4977702;28;20523;-73
2022/10/23 07:38:45;;;;;;;29.35;27.00;;;;;;;14.81;67.86;100866.81;4977324;28;20034;-73
2022/10/23 07:41:11;;;;;;;26.25;24.45;;;;;;;14.82;67.81;100860.31;4977493;28;20092;-73
2022/10/23 07:43:37;;;;;;;27.17;24.58;;;;;;;14.82;67.92;100859.50;4977374;28;20035;-73
2022/10/23 07:46:03;;;;;;;26.70;24.98;;;;;;;14.82;68.19;100854.88;4976978;28;20058;-73
2022/10/23 07:48:29;;;;;;;27.92;25.27;;;;;;;14.81;67.91;100853.22;4976880;28;20500;-74
2022/10/23 07:51:06;;;;;;;29.25;27.40;;;;;;;14.83;68.02;100858.41;4977488;28;20065;-74
2022/10/23 07:53:32;;;;;;;26.40;24.70;;;;;;;14.82;68.32;100859.50;4976798;28;20423;-74
2022/10/23 07:56:03;;;;;;;27.63;25.73;;;;;;;14.82;68.16;100856.78;4976484;28;20094;-74
2022/10/23 07:58:29;;;;;;;29.23;26.52;;;;;;;14.82;68.55;100849.44;4976610;28;20041;-74
2022/10/23 08:00:58;;;;;;;26.83;25.08;;;;;;;14.83;68.32;100858.41;4976499;28;20035;-74
2022/10/23 08:03:32;;;;;;;26.92;25.00;;;;;;;14.83;68.80;100851.06;4976602;28;20368;-74
2022/10/23 08:05:58;;;;;;;27.38;25.30;;;;;;;14.81;68.32;100861.38;4977110;28;20111;-74
2022/10/23 08:08:25;;;;;;;25.20;23.63;;;;;;;14.82;68.67;100854.06;4976491;28;20097;-74
2022/10/23 08:10:52;;;;;;;27.23;25.35;;;;;;;14.82;68.33;100846.72;4976323;28;20038;-73
2022/10/23 08:13:19;;;;;;;25.80;24.10;;;;;;;14.82;68.45;100846.72;4976385;28;20085;-76
2022/10/23 08:15:46;;;;;;;28.05;26.42;;;;;;;14.82;68.56;100854.06;4976507;28;20027;-74
2022/10/23 08:18:11;;;;;;;27.17;24.83;;;;;;;14.82;68.81;100845.91;4976155;28;20093;-75
2022/10/23 08:20:41;;;;;;;27.20;25.05;;;;;;;14.82;68.38;100849.44;4976399;28;20035;-74
2022/10/23 08:23:07;;;;;;;26.65;25.05;;;;;;;14.83;68.53;100855.69;4974171;28;20039;-74
2022/10/23 08:25:33;;;;;;;26.20;24.60;;;;;;;14.83;68.61;100845.63;4976876;28;20065;-73
2022/10/23 08:27:59;;;;;;;28.52;26.40;;;;;;;14.83;68.70;100836.66;4974974;28;20083;-74
2022/10/23 08:30:25;;;;;;;26.52;24.77;;;;;;;14.83;68.77;100837.47;4976272;28;20074;-74
2022/10/23 08:32:50;;;;;;;28.77;26.88;;;;;;;14.84;68.76;100830.09;4975859;28;20062;-74
2022/10/23 08:35:15;;;;;;;27.55;25.85;;;;;;;14.84;68.86;100825.50;4976441;28;20038;-73
2022/10/23 08:37:41;;;;;;;26.33;24.30;;;;;;;14.84;68.86;100825.50;4976183;28;20390;-74
2022/10/23 08:40:06;;;;;;;25.63;24.02;;;;;;;14.85;68.79;100815.44;4976009;28;20038;-74
2022/10/23 08:42:37;;;;;;;27.75;25.10;;;;;;;14.85;68.80;100820.88;4976318;28;20459;-75
2022/10/23 08:45:24;;;;;;;28.15;26.15;;;;;;;14.85;69.29;100818.16;4976103;28;20058;-74
2022/10/23 08:47:54;;;;;;;27.15;25.50;;;;;;;14.85;69.08;100818.97;4975765;28;20035;-75
2022/10/23 08:50:27;;;;;;;26.92;25.02;;;;;;;14.86;69.19;100819.78;4976367;28;20037;-74
2022/10/23 08:53:02;;;;;;;26.85;25.17;;;;;;;14.85;68.90;100816.25;4976044;28;20426;-74
2022/10/23 08:55:39;;;;;;;27.25;25.50;;;;;;;14.86;69.15;100811.63;4975518;28;20058;-75
2022/10/23 08:58:09;;;;;;;27.80;25.58;;;;;;;14.87;69.21;100807.84;4976421;28;20090;-75
2022/10/23 09:00:35;;;;;;;26.63;25.00;;;;;;;14.87;69.21;100803.22;4975709;28;20203;-75
2022/10/23 09:03:04;;;;;;;28.48;26.50;;;;;;;14.87;69.57;100797.78;4975770;28;20058;-75
2022/10/23 09:05:30;;;;;;;;;;;;;;;14.88;69.34;100785.78;4975925;28;20464;-75
2022/10/23 09:08:02;;;;;;;27.95;26.25;;;;;;;14.88;68.74;100784.97;4975917;28;20292;-74
2022/10/23 09:10:50;;;;;;;27.85;26.17;;;;;;;14.87;69.27;100769.75;4975746;28;20030;-74
2022/10/23 09:13:53;;;;;;;24.95;23.42;;;;;;;14.87;69.23;100772.47;4975505;28;20085;-75
2022/10/23 09:16:31;;;;;;;26.60;25.02;;;;;;;14.88;69.35;100774.09;4975490;28;20483;-76
2022/10/23 09:18:57;;;;;;;26.52;24.88;;;;;;;14.87;69.02;100767.03;4975641;28;20514;-75
2022/10/23 09:21:29;;;;;;;25.40;24.00;;;;;;;14.87;68.96;100769.75;4975361;28;20502;-75
2022/10/23 09:23:55;;;;;;;26.17;24.60;;;;;;;14.87;68.74;100762.41;4975133;28;20550;-77
2022/10/23 09:26:20;;;;;;;30.95;28.48;;;;;;;14.88;68.75;100761.31;4974754;28;20419;-76
2022/10/23 09:28:48;;;;;;;27.75;25.90;;;;;;;14.89;69.01;100759.41;4974921;28;20041;-76
2022/10/23 09:31:15;;;;;;;25.92;24.23;;;;;;;14.90;68.63;100751.00;4974775;28;20056;-74
2022/10/23 09:33:51;;;;;;;26.70;25.10;;;;;;;14.91;68.82;100746.34;4974659;28;20034;-75
2022/10/23 09:36:20;;;;;;;28.10;26.08;;;;;;;14.92;69.05;100742.56;4974552;28;20038;-75
2022/10/23 09:38:45;;;;;;;29.25;26.85;;;;;;;14.95;69.10;100743.94;4974849;28;20034;-75
2022/10/23 09:41:37;;;;;;;29.38;27.23;;;;;;;14.95;69.45;100747.47;4974591;28;20030;-75
2022/10/23 09:44:28;;;;;;;29.55;27.55;;;;;;;14.95;69.78;100744.75;4974280;28;20058;-74
2022/10/23 09:47:18;;;;;;;28.50;26.70;;;;;;;14.96;69.74;100743.63;4974604;28;20057;-76
2022/10/23 09:49:55;;;;;;;28.23;26.27;;;;;;;14.96;69.79;100730.03;4974817;28;20038;-75
2022/10/23 09:52:31;;;;;;;27.23;25.42;;;;;;;14.97;69.91;100720.81;4974196;28;20034;-74
2022/10/23 09:54:59;;;;;;;28.27;26.38;;;;;;;14.98;69.89;100722.44;4974079;28;20031;-75
2022/10/23 09:57:28;;;;;;;26.50;24.92;;;;;;;14.98;70.08;100716.19;4974091;28;20408;-73
2022/10/23 09:59:57;;;;;;;28.98;27.02;;;;;;;14.99;70.08;100715.88;4974156;28;20472;-75
2022/10/23 10:02:34;;;;;;;28.73;26.02;;;;;;;15.00;70.29;100701.22;4974327;28;20034;-75
2022/10/23 10:05:29;;;;;;;27.77;25.63;;;;;;;15.00;70.44;100698.50;4974098;28;20063;-74
2022/10/23 10:08:02;;;;;;;28.45;26.50;;;;;;;15.03;70.51;100697.94;4974356;28;20084;-74
2022/10/23 10:10:34;;;;;;;28.38;26.55;;;;;;;15.03;70.76;100687.06;4974457;28;20045;-74
2022/10/23 10:13:10;;;;;;;29.25;27.17;;;;;;;15.05;70.94;100698.50;4974705;28;20034;-75
2022/10/23 10:15:44;;;;;;;26.92;25.13;;;;;;;15.07;70.84;100690.06;4974595;28;20086;-75
2022/10/23 10:18:25;;;;;;;29.13;27.17;;;;;;;15.07;70.99;100684.63;4974093;28;20031;-75
2022/10/23 10:20:55;;;;;;;28.38;26.45;;;;;;;15.08;70.94;100684.34;4974113;28;20051;-73
2022/10/23 10:23:34;;;;;;;28.90;26.65;;;;;;;15.09;71.56;100686.00;4974149;28;20109;-73
2022/10/23 10:26:14;;;;;;;27.50;25.77;;;;;;;15.11;71.71;100686.50;4974070;28;20046;-75
2022/10/23 10:29:09;;;;;;;28.10;26.40;;;;;;;15.12;71.25;100681.91;4974767;28;20035;-75
2022/10/23 10:32:20;;;;;;;26.38;24.63;;;;;;;15.15;71.09;100684.06;4974613;28;20082;-76
2022/10/23 10:34:57;;;;;;;27.95;25.95;;;;;;;15.15;71.19;100678.63;4958961;28;20038;-76
2022/10/23 10:37:37;;;;;;;26.88;25.33;;;;;;;15.15;71.04;100671.28;4974272;28;20451;-74
2022/10/23 10:40:09;;;;;;;28.45;26.60;;;;;;;15.18;70.62;100675.34;4973165;28;20026;-74
2022/10/23 10:43:01;;;;;;;26.00;24.35;;;;;;;15.21;70.60;100668.53;4974055;28;20039;-73
2022/10/23 10:45:45;;;;;;;27.00;25.13;;;;;;;15.22;70.32;100668.28;4973640;28;20387;-73
2022/10/23 10:48:48;;;;;;;28.40;26.52;;;;;;;15.25;70.78;100656.03;4977207;28;20082;-73
2022/10/23 10:51:32;;;;;;;28.05;26.33;;;;;;;15.26;69.98;100649.47;4976385;28;20464;-74
2022/10/23 10:54:25;;;;;;;27.88;26.00;;;;;;;15.28;70.66;100647.31;4977057;28;20054;-75
2022/10/23 10:56:50;;;;;;;29.08;27.15;;;;;;;15.30;70.17;100648.66;4977501;28;20101;-74
2022/10/23 10:59:26;;;;;;;29.92;27.55;;;;;;;15.32;70.24;100640.19;4977247;28;20453;-73
2022/10/23 11:02:02;;;;;;;28.48;26.13;;;;;;;15.35;70.42;100642.38;4977656;28;20462;-74
2022/10/23 11:04:32;;;;;;;26.58;25.17;;;;;;;15.39;70.24;100638.00;4977552;28;20031;-73
2022/10/23 11:07:04;;;;;;;29.20;27.45;;;;;;;15.41;70.48;100643.19;4977744;28;20022;-74
2022/10/23 11:09:30;;;;;;;27.77;26.17;;;;;;;15.43;70.01;100636.38;4977598;28;20031;-74
2022/10/23 11:11:56;;;;;;;28.63;26.75;;;;;;;15.45;70.32;100626.03;4977718;28;20042;-74
2022/10/23 11:14:24;;;;;;;28.27;26.27;;;;;;;15.47;70.21;100629.28;4976999;28;20038;-74
2022/10/23 11:17:00;;;;;;;29.52;27.77;;;;;;;15.50;70.01;100630.63;4977076;28;20035;-73
2022/10/23 11:19:38;;;;;;;28.20;26.60;;;;;;;15.52;70.20;100628.44;4977142;28;20030;-73
2022/10/23 11:22:11;;;;;;;29.42;27.10;;;;;;;15.53;70.44;100611.81;4977226;28;20458;-75
2022/10/23 11:25:01;;;;;;;29.73;27.65;;;;;;;15.56;70.32;100611.25;4977077;28;20035;-73